Arnsberg-Menden Airport EDLA

Flugplatz Daten

Name: Arnsberg-Menden Airport

Ident: EDLA

Lat: 51,48389053

Long: 7,898333073

Platzhöhe: 794 ft

IataCode:

City: Neheim-Hüsten

Metar

2014/08/25 19:00
CYMH 251900Z 35007KT 15SM OVC026 11/06 A3009 RMK SC8 EDLAST STAFFED OB/NEXT 261100 UTC SLP188

Taf

Gewünschte Webcam nicht vorhanden? Dann fügen Sie eine hinzu. Sie wird dann so schnell wie möglich freigeschaltet
Url: Title: